createdAt,value
2023-02-22T00:00:21.774Z,1000.10
2023-02-22T00:05:21.699Z,1000.05
2023-02-22T00:10:21.645Z,1000.00
2023-02-22T00:15:21.571Z,999.98
2023-02-22T00:20:21.519Z,1000.02
2023-02-22T00:25:21.443Z,1000.04
2023-02-22T00:30:21.397Z,999.94
2023-02-22T00:35:21.304Z,999.97
2023-02-22T00:40:21.247Z,999.98
2023-02-22T00:45:21.172Z,999.91
2023-02-22T00:50:21.116Z,999.83
2023-02-22T00:55:21.051Z,999.82
2023-02-22T01:00:20.984Z,999.83
2023-02-22T01:05:20.916Z,999.73
2023-02-22T01:10:20.841Z,999.72
2023-02-22T01:15:20.788Z,999.63
2023-02-22T01:20:20.707Z,999.58
2023-02-22T01:25:20.652Z,999.57
2023-02-22T01:30:20.647Z,999.56
2023-02-22T01:35:20.526Z,999.54
2023-02-22T01:40:20.572Z,999.57
2023-02-22T01:45:20.385Z,999.51
2023-02-22T01:50:20.303Z,999.48
2023-02-22T01:55:20.250Z,999.48
2023-02-22T02:00:20.176Z,999.38
2023-02-22T02:05:20.182Z,999.34
2023-02-22T02:10:20.043Z,999.32
2023-02-22T02:15:19.980Z,999.31
2023-02-22T02:20:19.908Z,999.33
2023-02-22T02:25:19.851Z,999.34
2023-02-22T02:30:19.796Z,999.34
2023-02-22T02:35:19.720Z,999.26
2023-02-22T02:40:19.700Z,999.21
2023-02-22T02:45:19.592Z,999.21
2023-02-22T02:50:19.514Z,999.20
2023-02-22T02:55:19.462Z,999.10
2023-02-22T03:00:19.397Z,999.14
2023-02-22T03:05:19.324Z,999.12
2023-02-22T03:10:19.253Z,999.05
2023-02-22T03:15:19.192Z,999.01
2023-02-22T03:20:19.119Z,999.04
2023-02-22T03:25:19.213Z,999.01
2023-02-22T03:30:19.018Z,999.01
2023-02-22T03:35:18.931Z,999.04
2023-02-22T03:40:18.862Z,999.06
2023-02-22T03:45:18.798Z,999.06
2023-02-22T03:50:18.737Z,999.03
2023-02-22T03:55:18.669Z,999.06
2023-02-22T04:00:18.602Z,998.99
2023-02-22T04:05:18.535Z,999.01
2023-02-22T04:10:18.465Z,998.95
2023-02-22T04:15:18.406Z,998.98
2023-02-22T04:20:18.339Z,998.90
2023-02-22T04:25:18.285Z,998.87
2023-02-22T04:30:18.262Z,998.92
2023-02-22T04:35:18.156Z,998.90
2023-02-22T04:40:18.083Z,998.82
2023-02-22T04:45:18.023Z,998.77
2023-02-22T04:50:17.950Z,998.80
2023-02-22T04:55:17.893Z,998.72
2023-02-22T05:00:17.826Z,998.70
2023-02-22T05:05:17.763Z,998.63
2023-02-22T05:10:17.694Z,998.56
2023-02-22T05:15:17.633Z,998.57
2023-02-22T05:20:19.749Z,998.54
2023-02-22T05:25:17.505Z,998.55
2023-02-22T05:30:17.466Z,998.53
2023-02-22T05:35:17.372Z,998.49
2023-02-22T05:40:17.310Z,998.51
2023-02-22T05:45:17.244Z,998.49
2023-02-22T05:50:17.169Z,998.49
2023-02-22T05:55:17.115Z,998.47
2023-02-22T06:00:17.037Z,998.45
2023-02-22T06:05:17.006Z,998.45
2023-02-22T06:10:16.907Z,998.46
2023-02-22T06:15:16.848Z,998.54
2023-02-22T06:20:16.772Z,998.53
2023-02-22T06:25:16.714Z,998.48
2023-02-22T06:30:16.725Z,998.59
2023-02-22T06:35:16.602Z,998.55
2023-02-22T06:40:16.508Z,998.63
2023-02-22T06:45:16.452Z,998.68
2023-02-22T06:50:16.392Z,998.68
2023-02-22T06:55:16.331Z,998.67
2023-02-22T07:00:16.247Z,998.68
2023-02-22T07:05:16.186Z,998.65
2023-02-22T07:10:16.117Z,998.65
2023-02-22T07:15:16.061Z,998.73
2023-02-22T07:20:15.987Z,998.71
2023-02-22T07:25:15.930Z,998.80
2023-02-22T07:30:15.893Z,998.75
2023-02-22T07:35:15.799Z,998.71
2023-02-22T07:40:15.739Z,998.73
2023-02-22T07:45:15.668Z,998.71
2023-02-22T07:50:15.609Z,998.71
2023-02-22T07:55:15.554Z,998.74
2023-02-22T08:00:15.460Z,998.66
2023-02-22T08:05:15.404Z,998.60
2023-02-22T08:10:15.329Z,998.61
2023-02-22T08:15:15.273Z,998.66
2023-02-22T08:20:15.219Z,998.72
2023-02-22T08:25:15.138Z,998.69
2023-02-22T08:30:15.109Z,998.69
2023-02-22T08:35:15.011Z,998.67
2023-02-22T08:40:15.136Z,998.74
2023-02-22T08:45:15.419Z,998.70
2023-02-22T08:50:14.817Z,998.73
2023-02-22T08:55:14.740Z,998.72
2023-02-22T09:00:14.682Z,998.69
2023-02-22T09:05:14.607Z,998.67
2023-02-22T09:10:14.532Z,998.63
2023-02-22T09:15:14.478Z,998.68
2023-02-22T09:20:14.398Z,998.67
2023-02-22T09:25:17.160Z,998.63
2023-02-22T09:30:14.279Z,998.55
2023-02-22T09:35:14.227Z,998.48
2023-02-22T09:40:14.138Z,998.47
2023-02-22T09:45:14.080Z,998.36
2023-02-22T09:50:14.005Z,998.38
2023-02-22T09:55:13.949Z,998.32
2023-02-22T10:00:13.909Z,998.25
2023-02-22T10:05:13.886Z,998.28
2023-02-22T10:10:13.756Z,998.19
2023-02-22T10:15:13.693Z,998.15
2023-02-22T10:20:13.614Z,998.22
2023-02-22T10:25:13.563Z,998.22
2023-02-22T10:30:24.152Z,998.16
2023-02-22T10:35:14.455Z,998.10
2023-02-22T10:40:13.362Z,998.09
2023-02-22T10:45:13.303Z,998.03
2023-02-22T10:50:13.227Z,997.98
2023-02-22T10:55:15.592Z,997.88
2023-02-22T11:00:13.099Z,997.83
2023-02-22T11:05:13.054Z,997.78
2023-02-22T11:10:12.965Z,997.71
2023-02-22T11:15:12.904Z,997.70
2023-02-22T11:20:12.951Z,997.65
2023-02-22T11:25:12.774Z,997.54
2023-02-22T11:30:12.815Z,997.51
2023-02-22T11:35:12.794Z,997.40
2023-02-22T11:40:12.826Z,997.34
2023-02-22T11:45:12.830Z,997.35
2023-02-22T11:50:12.840Z,997.22
2023-02-22T11:55:12.876Z,997.16
2023-02-22T12:00:12.902Z,997.14
2023-02-22T12:05:12.344Z,997.11
2023-02-22T12:10:12.176Z,996.99
2023-02-22T12:15:12.116Z,997.09
2023-02-22T12:20:12.054Z,997.00
2023-02-22T12:25:11.979Z,996.97
2023-02-22T12:30:11.934Z,996.97
2023-02-22T12:35:11.845Z,996.94
2023-02-22T12:40:11.771Z,996.99
2023-02-22T12:45:11.831Z,996.91
2023-02-22T12:50:11.697Z,996.96
2023-02-22T12:55:11.581Z,996.95
2023-02-22T13:00:11.510Z,996.90
2023-02-22T13:05:11.498Z,996.88
2023-02-22T13:10:11.418Z,996.82
2023-02-22T13:15:11.312Z,996.76
2023-02-22T13:20:11.239Z,996.75
2023-02-22T13:25:11.185Z,996.63
2023-02-22T13:30:11.146Z,996.69
2023-02-22T13:35:11.060Z,996.61
2023-02-22T13:40:10.980Z,996.59
2023-02-22T13:45:10.940Z,996.49
2023-02-22T13:50:10.971Z,996.51
2023-02-22T13:55:10.796Z,996.42
2023-02-22T14:00:10.749Z,996.45
2023-02-22T14:05:10.698Z,996.39
2023-02-22T14:10:10.591Z,996.41
2023-02-22T14:15:21.972Z,996.42
2023-02-22T14:20:11.491Z,996.28
2023-02-22T14:25:15.091Z,996.32
2023-02-22T14:30:10.362Z,996.30
2023-02-22T14:35:25.642Z,996.29
2023-02-22T14:40:11.238Z,996.26
2023-02-22T14:45:10.148Z,996.21
2023-02-22T14:50:10.079Z,996.21
2023-02-22T14:55:10.012Z,996.21
2023-02-22T15:00:09.938Z,996.15
2023-02-22T15:05:09.879Z,996.05
2023-02-22T15:10:09.804Z,996.10
2023-02-22T15:15:09.750Z,996.07
2023-02-22T15:20:09.713Z,996.02
2023-02-22T15:25:09.615Z,996.00
2023-02-22T15:30:09.613Z,995.97
2023-02-22T15:35:09.486Z,995.91
2023-02-22T15:40:09.411Z,995.85
2023-02-22T15:45:09.355Z,995.89
2023-02-22T15:50:09.280Z,995.95
2023-02-22T15:55:09.222Z,995.93
2023-02-22T16:00:09.148Z,995.92
2023-02-22T16:05:09.092Z,996.00
2023-02-22T16:10:09.118Z,995.97
2023-02-22T16:15:08.961Z,995.98
2023-02-22T16:20:08.886Z,995.98
2023-02-22T16:25:08.827Z,996.04
2023-02-22T16:30:23.221Z,995.99
2023-02-22T16:35:09.815Z,996.00
2023-02-22T16:40:08.616Z,996.04
2023-02-22T16:45:08.558Z,995.95
2023-02-22T16:50:08.483Z,995.95
2023-02-22T16:55:08.423Z,995.96
2023-02-22T17:00:08.350Z,995.99
2023-02-22T17:05:08.348Z,995.96
2023-02-22T17:10:08.229Z,995.99
2023-02-22T17:15:08.156Z,996.00
2023-02-22T17:20:08.086Z,995.97
2023-02-22T17:25:08.026Z,996.03
2023-02-22T17:30:08.066Z,995.94
2023-02-22T17:35:07.895Z,995.94
2023-02-22T17:40:07.855Z,995.95
2023-02-22T17:45:07.770Z,995.89
2023-02-22T17:50:07.699Z,995.85
2023-02-22T17:55:07.640Z,995.83
2023-02-22T18:00:07.564Z,995.89
2023-02-22T18:05:07.506Z,995.82
2023-02-22T18:10:07.433Z,995.84
2023-02-22T18:15:07.376Z,995.81
2023-02-22T18:20:07.300Z,995.75
2023-02-22T18:25:07.241Z,995.77
2023-02-22T18:30:07.220Z,995.81
2023-02-22T18:35:07.114Z,995.65
2023-02-22T18:40:07.044Z,995.63
2023-02-22T18:45:06.978Z,995.62
2023-02-22T18:50:06.902Z,995.55
2023-02-22T18:55:06.849Z,995.49
2023-02-22T19:00:07.735Z,995.41
2023-02-22T19:05:06.722Z,995.36
2023-02-22T19:10:06.649Z,995.36
2023-02-22T19:15:06.610Z,995.32
2023-02-22T19:20:06.511Z,995.25
2023-02-22T19:25:06.456Z,995.35
2023-02-22T19:30:06.393Z,995.25
2023-02-22T19:35:06.847Z,995.18
2023-02-22T19:40:06.242Z,995.18
2023-02-22T19:45:06.188Z,995.12
2023-02-22T19:50:06.115Z,995.15
2023-02-22T19:55:06.050Z,995.13
2023-02-22T20:00:05.979Z,995.15
2023-02-22T20:05:05.920Z,995.14
2023-02-22T20:10:05.852Z,995.17
2023-02-22T20:15:05.791Z,995.20
2023-02-22T20:20:05.719Z,995.25
2023-02-22T20:25:05.673Z,995.29
2023-02-22T20:30:05.590Z,995.31
2023-02-22T20:35:05.532Z,995.33
2023-02-22T20:40:05.459Z,995.31
2023-02-22T20:45:05.410Z,995.31
2023-02-22T20:50:05.342Z,995.25
2023-02-22T20:55:05.267Z,995.24
2023-02-22T21:00:05.197Z,995.27
2023-02-22T21:05:05.144Z,995.29
2023-02-22T21:10:05.135Z,995.32
2023-02-22T21:15:05.007Z,995.33
2023-02-22T21:20:04.935Z,995.30
2023-02-22T21:25:04.880Z,995.34
2023-02-22T21:30:04.813Z,995.24
2023-02-22T21:35:04.755Z,995.21
2023-02-22T21:40:04.675Z,995.24
2023-02-22T21:45:04.617Z,995.30
2023-02-22T21:50:04.546Z,995.24
2023-02-22T21:55:04.490Z,995.28
2023-02-22T22:00:04.418Z,995.23
2023-02-22T22:05:04.361Z,995.24
2023-02-22T22:10:04.283Z,995.21
2023-02-22T22:15:04.227Z,995.27
2023-02-22T22:20:04.153Z,995.24
2023-02-22T22:25:04.089Z,995.23
2023-02-22T22:30:04.027Z,995.19
2023-02-22T22:35:03.959Z,995.21
2023-02-22T22:40:03.900Z,995.24
2023-02-22T22:45:03.822Z,995.29
2023-02-22T22:50:03.764Z,995.31
2023-02-22T22:55:03.693Z,995.33
2023-02-22T23:00:03.632Z,995.35
2023-02-22T23:05:03.562Z,995.31
2023-02-22T23:10:03.504Z,995.34
2023-02-22T23:15:03.430Z,995.25
2023-02-22T23:20:03.376Z,995.27
2023-02-22T23:25:03.301Z,995.24
2023-02-22T23:30:03.273Z,995.22
2023-02-22T23:35:03.171Z,995.20
2023-02-22T23:40:03.116Z,995.20
2023-02-22T23:45:03.042Z,995.19
2023-02-22T23:50:02.993Z,995.16
2023-02-22T23:55:02.916Z,995.17
